sensor_id;sensor_type;location;lat;lon;timestamp;temperature;humidity
14737;DHT22;7459;53.590;10.062;2023-02-01T00:02:02;5.80;99.90
14737;DHT22;7459;53.590;10.062;2023-02-01T00:04:28;5.80;99.90
14737;DHT22;7459;53.590;10.062;2023-02-01T00:06:54;5.80;99.90
14737;DHT22;7459;53.590;10.062;2023-02-01T00:09:19;5.80;99.90
14737;DHT22;7459;53.590;10.062;2023-02-01T00:11:45;5.80;99.90
14737;DHT22;7459;53.590;10.062;2023-02-01T00:14:11;5.80;99.90
14737;DHT22;7459;53.590;10.062;2023-02-01T00:16:38;5.70;99.90
14737;DHT22;7459;53.590;10.062;2023-02-01T00:19:14;5.60;99.90
14737;DHT22;7459;53.590;10.062;2023-02-01T00:21:41;5.60;99.90
14737;DHT22;7459;53.590;10.062;2023-02-01T00:24:09;5.60;99.90
14737;DHT22;7459;53.590;10.062;2023-02-01T00:26:41;5.50;99.90
14737;DHT22;7459;53.590;10.062;2023-02-01T00:29:14;5.50;99.90
14737;DHT22;7459;53.590;10.062;2023-02-01T00:31:41;5.60;99.90
14737;DHT22;7459;53.590;10.062;2023-02-01T00:34:13;5.60;99.90
14737;DHT22;7459;53.590;10.062;2023-02-01T00:36:40;5.60;99.90
14737;DHT22;7459;53.590;10.062;2023-02-01T00:39:07;5.60;99.90
14737;DHT22;7459;53.590;10.062;2023-02-01T00:41:32;5.60;99.90
14737;DHT22;7459;53.590;10.062;2023-02-01T00:43:58;5.60;99.90
14737;DHT22;7459;53.590;10.062;2023-02-01T00:46:24;5.70;99.90
14737;DHT22;7459;53.590;10.062;2023-02-01T00:48:51;5.70;99.90
14737;DHT22;7459;53.590;10.062;2023-02-01T00:51:21;5.70;99.90
14737;DHT22;7459;53.590;10.062;2023-02-01T00:53:48;5.70;99.90
14737;DHT22;7459;53.590;10.062;2023-02-01T00:56:14;5.80;99.90
14737;DHT22;7459;53.590;10.062;2023-02-01T00:58:40;5.80;99.90
14737;DHT22;7459;53.590;10.062;2023-02-01T01:01:14;5.80;99.90
14737;DHT22;7459;53.590;10.062;2023-02-01T01:03:47;5.80;99.90
14737;DHT22;7459;53.590;10.062;2023-02-01T01:06:18;5.90;99.90
14737;DHT22;7459;53.590;10.062;2023-02-01T01:08:46;5.90;99.90
14737;DHT22;7459;53.590;10.062;2023-02-01T01:11:19;5.80;99.90
14737;DHT22;7459;53.590;10.062;2023-02-01T01:13:48;5.90;99.90
14737;DHT22;7459;53.590;10.062;2023-02-01T01:16:15;5.90;99.90
14737;DHT22;7459;53.590;10.062;2023-02-01T01:18:41;5.90;99.90
14737;DHT22;7459;53.590;10.062;2023-02-01T01:21:08;5.90;99.90
14737;DHT22;7459;53.590;10.062;2023-02-01T01:23:35;5.90;99.90
14737;DHT22;7459;53.590;10.062;2023-02-01T01:26:09;5.90;99.90
14737;DHT22;7459;53.590;10.062;2023-02-01T01:28:37;5.90;99.90
14737;DHT22;7459;53.590;10.062;2023-02-01T01:31:03;5.90;99.90
14737;DHT22;7459;53.590;10.062;2023-02-01T01:33:28;5.90;99.90
14737;DHT22;7459;53.590;10.062;2023-02-01T01:35:54;5.90;99.90
14737;DHT22;7459;53.590;10.062;2023-02-01T01:38:20;5.90;99.90
14737;DHT22;7459;53.590;10.062;2023-02-01T01:40:47;5.90;99.90
14737;DHT22;7459;53.590;10.062;2023-02-01T01:43:17;5.90;99.90
14737;DHT22;7459;53.590;10.062;2023-02-01T01:45:46;5.90;99.90
14737;DHT22;7459;53.590;10.062;2023-02-01T01:51:02;5.90;99.90
14737;DHT22;7459;53.590;10.062;2023-02-01T01:53:35;5.90;99.90
14737;DHT22;7459;53.590;10.062;2023-02-01T01:56:06;6.00;99.90
14737;DHT22;7459;53.590;10.062;2023-02-01T01:58:33;5.90;99.90
14737;DHT22;7459;53.590;10.062;2023-02-01T02:00:59;5.90;99.90
14737;DHT22;7459;53.590;10.062;2023-02-01T02:03:45;6.00;99.90
14737;DHT22;7459;53.590;10.062;2023-02-01T02:06:20;6.00;99.90
14737;DHT22;7459;53.590;10.062;2023-02-01T02:08:52;5.90;99.90
14737;DHT22;7459;53.590;10.062;2023-02-01T02:11:19;6.00;99.90
14737;DHT22;7459;53.590;10.062;2023-02-01T02:13:49;6.00;99.90
14737;DHT22;7459;53.590;10.062;2023-02-01T02:34:27;6.00;99.90
14737;DHT22;7459;53.590;10.062;2023-02-01T02:37:24;6.00;99.90
14737;DHT22;7459;53.590;10.062;2023-02-01T02:46:02;6.00;99.90
14737;DHT22;7459;53.590;10.062;2023-02-01T02:49:12;5.90;99.90
14737;DHT22;7459;53.590;10.062;2023-02-01T02:51:45;5.90;99.90
14737;DHT22;7459;53.590;10.062;2023-02-01T02:54:36;5.90;99.90
14737;DHT22;7459;53.590;10.062;2023-02-01T02:57:34;5.80;99.90
14737;DHT22;7459;53.590;10.062;2023-02-01T03:00:24;5.90;99.90
14737;DHT22;7459;53.590;10.062;2023-02-01T03:05:53;5.80;99.90
14737;DHT22;7459;53.590;10.062;2023-02-01T03:08:24;5.80;99.90
14737;DHT22;7459;53.590;10.062;2023-02-01T03:10:58;5.80;99.90
14737;DHT22;7459;53.590;10.062;2023-02-01T03:19:05;5.70;99.90
14737;DHT22;7459;53.590;10.062;2023-02-01T03:21:45;5.70;99.90
14737;DHT22;7459;53.590;10.062;2023-02-01T03:24:20;5.70;99.90
14737;DHT22;7459;53.590;10.062;2023-02-01T03:27:02;5.70;99.90
14737;DHT22;7459;53.590;10.062;2023-02-01T03:29:38;5.70;99.90
14737;DHT22;7459;53.590;10.062;2023-02-01T03:32:09;5.70;99.90
14737;DHT22;7459;53.590;10.062;2023-02-01T03:34:35;5.70;99.90
14737;DHT22;7459;53.590;10.062;2023-02-01T03:37:05;5.60;99.90
14737;DHT22;7459;53.590;10.062;2023-02-01T03:39:47;5.60;99.90
14737;DHT22;7459;53.590;10.062;2023-02-01T03:42:27;5.60;99.90
14737;DHT22;7459;53.590;10.062;2023-02-01T03:45:07;5.50;99.90
14737;DHT22;7459;53.590;10.062;2023-02-01T03:47:43;5.50;99.90
14737;DHT22;7459;53.590;10.062;2023-02-01T03:50:14;5.50;99.90
14737;DHT22;7459;53.590;10.062;2023-02-01T03:52:51;5.50;99.90
14737;DHT22;7459;53.590;10.062;2023-02-01T03:55:21;5.50;99.90
14737;DHT22;7459;53.590;10.062;2023-02-01T03:57:59;5.50;99.90
14737;DHT22;7459;53.590;10.062;2023-02-01T04:00:28;5.50;99.90
14737;DHT22;7459;53.590;10.062;2023-02-01T04:02:54;5.50;99.90
14737;DHT22;7459;53.590;10.062;2023-02-01T04:05:20;5.50;99.90
14737;DHT22;7459;53.590;10.062;2023-02-01T04:07:46;5.40;99.90
14737;DHT22;7459;53.590;10.062;2023-02-01T04:10:12;5.50;99.90
14737;DHT22;7459;53.590;10.062;2023-02-01T04:12:39;5.40;99.90
14737;DHT22;7459;53.590;10.062;2023-02-01T04:15:06;5.50;99.90
14737;DHT22;7459;53.590;10.062;2023-02-01T04:17:32;5.50;99.90
14737;DHT22;7459;53.590;10.062;2023-02-01T04:19:58;5.50;99.90
14737;DHT22;7459;53.590;10.062;2023-02-01T04:22:24;5.40;99.90
14737;DHT22;7459;53.590;10.062;2023-02-01T04:24:50;5.40;99.90
14737;DHT22;7459;53.590;10.062;2023-02-01T04:27:15;5.40;99.90
14737;DHT22;7459;53.590;10.062;2023-02-01T04:29:41;5.40;99.90
14737;DHT22;7459;53.590;10.062;2023-02-01T04:32:07;5.40;99.90
14737;DHT22;7459;53.590;10.062;2023-02-01T04:34:33;5.50;99.90
14737;DHT22;7459;53.590;10.062;2023-02-01T04:36:59;5.50;99.90
14737;DHT22;7459;53.590;10.062;2023-02-01T04:39:24;5.50;99.90
14737;DHT22;7459;53.590;10.062;2023-02-01T04:41:50;5.50;99.90
14737;DHT22;7459;53.590;10.062;2023-02-01T04:44:17;5.40;99.90
14737;DHT22;7459;53.590;10.062;2023-02-01T04:46:44;5.40;99.90
14737;DHT22;7459;53.590;10.062;2023-02-01T04:49:12;5.40;99.90
14737;DHT22;7459;53.590;10.062;2023-02-01T04:51:39;5.40;99.90
14737;DHT22;7459;53.590;10.062;2023-02-01T04:54:05;5.30;99.90
14737;DHT22;7459;53.590;10.062;2023-02-01T04:56:31;5.30;99.90
14737;DHT22;7459;53.590;10.062;2023-02-01T04:58:58;5.20;99.90
14737;DHT22;7459;53.590;10.062;2023-02-01T05:01:24;5.20;99.90
14737;DHT22;7459;53.590;10.062;2023-02-01T05:03:50;5.20;99.90
14737;DHT22;7459;53.590;10.062;2023-02-01T05:06:16;5.20;99.90
14737;DHT22;7459;53.590;10.062;2023-02-01T05:08:42;5.10;99.90
14737;DHT22;7459;53.590;10.062;2023-02-01T05:11:08;5.10;99.90
14737;DHT22;7459;53.590;10.062;2023-02-01T05:13:54;5.00;99.90
14737;DHT22;7459;53.590;10.062;2023-02-01T05:16:19;5.00;99.90
14737;DHT22;7459;53.590;10.062;2023-02-01T05:18:45;4.90;99.90
14737;DHT22;7459;53.590;10.062;2023-02-01T05:21:11;4.80;99.90
14737;DHT22;7459;53.590;10.062;2023-02-01T05:23:37;4.80;99.90
14737;DHT22;7459;53.590;10.062;2023-02-01T05:26:22;4.70;99.90
14737;DHT22;7459;53.590;10.062;2023-02-01T05:28:48;4.70;99.90
14737;DHT22;7459;53.590;10.062;2023-02-01T05:33:40;4.50;99.90
14737;DHT22;7459;53.590;10.062;2023-02-01T05:36:06;4.40;99.90
14737;DHT22;7459;53.590;10.062;2023-02-01T05:38:32;4.40;99.90
14737;DHT22;7459;53.590;10.062;2023-02-01T05:40:58;4.40;99.90
14737;DHT22;7459;53.590;10.062;2023-02-01T05:43:23;4.30;99.90
14737;DHT22;7459;53.590;10.062;2023-02-01T05:48:17;4.20;99.90
14737;DHT22;7459;53.590;10.062;2023-02-01T05:50:43;4.20;99.90
14737;DHT22;7459;53.590;10.062;2023-02-01T05:53:08;4.20;99.90
14737;DHT22;7459;53.590;10.062;2023-02-01T05:55:34;4.10;99.90
14737;DHT22;7459;53.590;10.062;2023-02-01T05:58:00;4.10;99.90
14737;DHT22;7459;53.590;10.062;2023-02-01T06:00:25;4.10;99.90
14737;DHT22;7459;53.590;10.062;2023-02-01T06:02:51;4.00;99.90
14737;DHT22;7459;53.590;10.062;2023-02-01T06:05:17;4.20;99.90
14737;DHT22;7459;53.590;10.062;2023-02-01T06:10:10;4.00;99.90
14737;DHT22;7459;53.590;10.062;2023-02-01T06:12:35;4.00;99.90
14737;DHT22;7459;53.590;10.062;2023-02-01T06:15:01;4.10;99.90
14737;DHT22;7459;53.590;10.062;2023-02-01T06:17:27;4.10;99.90
14737;DHT22;7459;53.590;10.062;2023-02-01T06:19:53;4.20;99.90
14737;DHT22;7459;53.590;10.062;2023-02-01T06:22:18;4.10;99.90
14737;DHT22;7459;53.590;10.062;2023-02-01T06:24:44;4.00;99.90
14737;DHT22;7459;53.590;10.062;2023-02-01T06:27:10;4.10;99.90
14737;DHT22;7459;53.590;10.062;2023-02-01T06:29:36;4.20;99.90
14737;DHT22;7459;53.590;10.062;2023-02-01T06:32:02;4.30;99.90
14737;DHT22;7459;53.590;10.062;2023-02-01T06:34:28;4.30;99.90
14737;DHT22;7459;53.590;10.062;2023-02-01T06:36:54;4.30;99.90
14737;DHT22;7459;53.590;10.062;2023-02-01T06:39:20;4.20;99.90
14737;DHT22;7459;53.590;10.062;2023-02-01T06:41:47;4.40;99.90
14737;DHT22;7459;53.590;10.062;2023-02-01T06:44:14;4.50;99.90
14737;DHT22;7459;53.590;10.062;2023-02-01T06:46:40;4.30;99.90
14737;DHT22;7459;53.590;10.062;2023-02-01T06:49:06;4.40;99.90
14737;DHT22;7459;53.590;10.062;2023-02-01T06:51:31;4.40;99.90
14737;DHT22;7459;53.590;10.062;2023-02-01T06:53:57;4.60;99.90
14737;DHT22;7459;53.590;10.062;2023-02-01T06:56:23;4.60;99.90
14737;DHT22;7459;53.590;10.062;2023-02-01T06:58:49;4.70;99.90
14737;DHT22;7459;53.590;10.062;2023-02-01T07:01:15;4.70;99.90
14737;DHT22;7459;53.590;10.062;2023-02-01T07:03:41;4.60;99.90
14737;DHT22;7459;53.590;10.062;2023-02-01T07:06:08;4.70;99.90
14737;DHT22;7459;53.590;10.062;2023-02-01T07:08:36;4.80;99.90
14737;DHT22;7459;53.590;10.062;2023-02-01T07:11:08;4.70;99.90
14737;DHT22;7459;53.590;10.062;2023-02-01T07:13:36;4.90;99.90
14737;DHT22;7459;53.590;10.062;2023-02-01T07:16:05;4.80;99.90
14737;DHT22;7459;53.590;10.062;2023-02-01T07:18:32;4.90;99.90
14737;DHT22;7459;53.590;10.062;2023-02-01T07:20:59;4.90;99.90
14737;DHT22;7459;53.590;10.062;2023-02-01T07:23:26;4.90;99.90
14737;DHT22;7459;53.590;10.062;2023-02-01T07:25:56;4.90;99.90
14737;DHT22;7459;53.590;10.062;2023-02-01T07:28:23;5.00;99.90
14737;DHT22;7459;53.590;10.062;2023-02-01T07:30:49;4.90;99.90
14737;DHT22;7459;53.590;10.062;2023-02-01T07:33:23;5.00;99.90
14737;DHT22;7459;53.590;10.062;2023-02-01T07:35:50;5.10;99.90
14737;DHT22;7459;53.590;10.062;2023-02-01T07:38:16;5.10;99.90
14737;DHT22;7459;53.590;10.062;2023-02-01T07:40:42;5.10;99.90
14737;DHT22;7459;53.590;10.062;2023-02-01T07:43:09;5.10;99.90
14737;DHT22;7459;53.590;10.062;2023-02-01T07:45:35;5.10;99.90
14737;DHT22;7459;53.590;10.062;2023-02-01T07:48:02;4.90;99.90
14737;DHT22;7459;53.590;10.062;2023-02-01T07:50:28;5.00;99.90
14737;DHT22;7459;53.590;10.062;2023-02-01T07:52:54;5.10;99.90
14737;DHT22;7459;53.590;10.062;2023-02-01T07:55:21;5.50;99.90
14737;DHT22;7459;53.590;10.062;2023-02-01T07:57:47;5.50;99.90
14737;DHT22;7459;53.590;10.062;2023-02-01T08:00:13;5.50;99.90
14737;DHT22;7459;53.590;10.062;2023-02-01T08:02:58;5.50;99.90
14737;DHT22;7459;53.590;10.062;2023-02-01T08:05:24;5.30;99.90
14737;DHT22;7459;53.590;10.062;2023-02-01T08:07:50;5.40;99.90
14737;DHT22;7459;53.590;10.062;2023-02-01T08:10:16;5.50;99.90
14737;DHT22;7459;53.590;10.062;2023-02-01T08:12:43;5.50;99.90
14737;DHT22;7459;53.590;10.062;2023-02-01T08:15:15;5.40;99.90
14737;DHT22;7459;53.590;10.062;2023-02-01T08:17:51;5.40;99.90
14737;DHT22;7459;53.590;10.062;2023-02-01T08:20:18;5.50;99.90
14737;DHT22;7459;53.590;10.062;2023-02-01T08:22:44;5.60;99.90
14737;DHT22;7459;53.590;10.062;2023-02-01T08:25:10;5.60;99.90
14737;DHT22;7459;53.590;10.062;2023-02-01T08:27:37;5.70;99.90
14737;DHT22;7459;53.590;10.062;2023-02-01T08:30:04;5.60;99.90
14737;DHT22;7459;53.590;10.062;2023-02-01T08:32:30;5.60;99.90
14737;DHT22;7459;53.590;10.062;2023-02-01T08:34:56;5.70;99.90
14737;DHT22;7459;53.590;10.062;2023-02-01T08:37:21;5.70;99.90
14737;DHT22;7459;53.590;10.062;2023-02-01T08:39:47;5.80;99.90
14737;DHT22;7459;53.590;10.062;2023-02-01T08:42:15;5.80;99.90
14737;DHT22;7459;53.590;10.062;2023-02-01T08:45:00;5.80;99.90
14737;DHT22;7459;53.590;10.062;2023-02-01T08:47:26;5.60;99.90
14737;DHT22;7459;53.590;10.062;2023-02-01T08:49:51;5.80;99.90
14737;DHT22;7459;53.590;10.062;2023-02-01T08:52:18;5.70;99.90
14737;DHT22;7459;53.590;10.062;2023-02-01T08:54:44;5.70;99.90
14737;DHT22;7459;53.590;10.062;2023-02-01T08:57:09;5.90;99.90
14737;DHT22;7459;53.590;10.062;2023-02-01T08:59:35;5.70;99.90
14737;DHT22;7459;53.590;10.062;2023-02-01T09:02:01;5.60;99.90
14737;DHT22;7459;53.590;10.062;2023-02-01T09:04:27;5.70;99.90
14737;DHT22;7459;53.590;10.062;2023-02-01T09:06:52;5.70;99.90
14737;DHT22;7459;53.590;10.062;2023-02-01T09:09:21;5.70;99.90
14737;DHT22;7459;53.590;10.062;2023-02-01T09:11:48;5.70;99.90
14737;DHT22;7459;53.590;10.062;2023-02-01T09:14:15;5.70;99.90
14737;DHT22;7459;53.590;10.062;2023-02-01T09:16:41;5.80;99.90
14737;DHT22;7459;53.590;10.062;2023-02-01T09:19:07;5.90;99.90
14737;DHT22;7459;53.590;10.062;2023-02-01T09:21:33;5.80;99.90
14737;DHT22;7459;53.590;10.062;2023-02-01T09:23:58;5.90;99.90
14737;DHT22;7459;53.590;10.062;2023-02-01T09:26:24;6.00;99.90
14737;DHT22;7459;53.590;10.062;2023-02-01T09:28:51;6.00;99.90
14737;DHT22;7459;53.590;10.062;2023-02-01T09:31:16;6.00;99.90
14737;DHT22;7459;53.590;10.062;2023-02-01T09:33:42;6.20;99.90
14737;DHT22;7459;53.590;10.062;2023-02-01T09:36:08;6.20;99.90
14737;DHT22;7459;53.590;10.062;2023-02-01T09:38:34;6.20;99.90
14737;DHT22;7459;53.590;10.062;2023-02-01T09:40:59;6.20;99.90
14737;DHT22;7459;53.590;10.062;2023-02-01T09:43:46;6.20;99.90
14737;DHT22;7459;53.590;10.062;2023-02-01T09:46:37;6.40;99.90
14737;DHT22;7459;53.590;10.062;2023-02-01T09:49:12;6.30;99.90
14737;DHT22;7459;53.590;10.062;2023-02-01T09:51:45;6.30;99.90
14737;DHT22;7459;53.590;10.062;2023-02-01T09:54:16;6.30;99.90
14737;DHT22;7459;53.590;10.062;2023-02-01T09:57:06;6.30;99.90
14737;DHT22;7459;53.590;10.062;2023-02-01T09:59:39;6.30;99.90
14737;DHT22;7459;53.590;10.062;2023-02-01T10:02:22;6.20;99.90
14737;DHT22;7459;53.590;10.062;2023-02-01T10:04:49;6.40;99.90
14737;DHT22;7459;53.590;10.062;2023-02-01T10:23:38;6.50;99.90
14737;DHT22;7459;53.590;10.062;2023-02-01T10:26:27;6.60;99.90
14737;DHT22;7459;53.590;10.062;2023-02-01T10:29:00;6.50;99.90
14737;DHT22;7459;53.590;10.062;2023-02-01T10:31:35;6.50;99.90
14737;DHT22;7459;53.590;10.062;2023-02-01T10:34:21;6.40;99.90
14737;DHT22;7459;53.590;10.062;2023-02-01T10:39:29;6.40;99.90
14737;DHT22;7459;53.590;10.062;2023-02-01T10:41:56;6.40;99.90
14737;DHT22;7459;53.590;10.062;2023-02-01T10:44:25;6.40;99.90
14737;DHT22;7459;53.590;10.062;2023-02-01T10:46:52;6.30;99.90
14737;DHT22;7459;53.590;10.062;2023-02-01T10:49:22;6.30;99.90
14737;DHT22;7459;53.590;10.062;2023-02-01T10:51:57;6.20;99.90
14737;DHT22;7459;53.590;10.062;2023-02-01T10:54:38;6.10;99.90
14737;DHT22;7459;53.590;10.062;2023-02-01T10:57:08;6.00;99.90
14737;DHT22;7459;53.590;10.062;2023-02-01T10:59:35;5.90;99.90
14737;DHT22;7459;53.590;10.062;2023-02-01T11:02:26;5.90;99.90
14737;DHT22;7459;53.590;10.062;2023-02-01T11:05:08;5.90;99.90
14737;DHT22;7459;53.590;10.062;2023-02-01T11:07:36;5.90;99.90
14737;DHT22;7459;53.590;10.062;2023-02-01T11:10:03;5.90;99.90
14737;DHT22;7459;53.590;10.062;2023-02-01T11:12:35;5.80;99.90
14737;DHT22;7459;53.590;10.062;2023-02-01T11:17:40;5.60;99.90
14737;DHT22;7459;53.590;10.062;2023-02-01T11:20:19;5.50;99.90
14737;DHT22;7459;53.590;10.062;2023-02-01T11:22:54;5.50;99.90
14737;DHT22;7459;53.590;10.062;2023-02-01T11:25:22;5.50;99.90
14737;DHT22;7459;53.590;10.062;2023-02-01T11:27:49;5.50;99.90
14737;DHT22;7459;53.590;10.062;2023-02-01T11:30:48;5.60;99.90
14737;DHT22;7459;53.590;10.062;2023-02-01T11:33:16;5.70;99.90
14737;DHT22;7459;53.590;10.062;2023-02-01T11:35:44;5.80;99.90
14737;DHT22;7459;53.590;10.062;2023-02-01T11:38:21;5.90;99.90
14737;DHT22;7459;53.590;10.062;2023-02-01T11:40:50;5.90;99.90
14737;DHT22;7459;53.590;10.062;2023-02-01T11:43:27;5.90;99.90
14737;DHT22;7459;53.590;10.062;2023-02-01T11:46:01;6.00;99.90
14737;DHT22;7459;53.590;10.062;2023-02-01T11:48:31;6.10;99.90
14737;DHT22;7459;53.590;10.062;2023-02-01T11:51:19;6.10;99.90
14737;DHT22;7459;53.590;10.062;2023-02-01T11:54:35;6.10;99.90
14737;DHT22;7459;53.590;10.062;2023-02-01T11:57:19;6.20;99.90
14737;DHT22;7459;53.590;10.062;2023-02-01T12:00:05;6.20;99.90
14737;DHT22;7459;53.590;10.062;2023-02-01T12:20:23;6.00;99.90
14737;DHT22;7459;53.590;10.062;2023-02-01T12:37:45;5.80;99.90
14737;DHT22;7459;53.590;10.062;2023-02-01T12:40:45;5.70;99.90
14737;DHT22;7459;53.590;10.062;2023-02-01T12:43:45;5.60;99.90
14737;DHT22;7459;53.590;10.062;2023-02-01T12:46:19;5.40;99.90
14737;DHT22;7459;53.590;10.062;2023-02-01T12:48:58;5.30;99.90
14737;DHT22;7459;53.590;10.062;2023-02-01T12:51:36;5.30;99.90
14737;DHT22;7459;53.590;10.062;2023-02-01T12:57:30;5.10;99.90
14737;DHT22;7459;53.590;10.062;2023-02-01T13:05:54;5.10;99.90
14737;DHT22;7459;53.590;10.062;2023-02-01T13:08:30;5.10;99.90
14737;DHT22;7459;53.590;10.062;2023-02-01T13:11:09;5.10;99.90
14737;DHT22;7459;53.590;10.062;2023-02-01T13:16:31;5.10;99.90
14737;DHT22;7459;53.590;10.062;2023-02-01T13:19:22;5.10;99.90
14737;DHT22;7459;53.590;10.062;2023-02-01T13:21:56;5.10;99.90
14737;DHT22;7459;53.590;10.062;2023-02-01T13:24:44;5.10;99.90
14737;DHT22;7459;53.590;10.062;2023-02-01T13:27:13;5.20;99.90
14737;DHT22;7459;53.590;10.062;2023-02-01T13:29:58;5.30;99.90
14737;DHT22;7459;53.590;10.062;2023-02-01T13:33:06;5.40;99.90
14737;DHT22;7459;53.590;10.062;2023-02-01T13:38:38;5.60;99.90
14737;DHT22;7459;53.590;10.062;2023-02-01T13:41:28;5.60;99.90
14737;DHT22;7459;53.590;10.062;2023-02-01T13:44:05;5.70;99.90
14737;DHT22;7459;53.590;10.062;2023-02-01T13:46:42;5.70;99.90
14737;DHT22;7459;53.590;10.062;2023-02-01T13:49:20;5.70;99.90
14737;DHT22;7459;53.590;10.062;2023-02-01T13:51:54;5.80;99.90
14737;DHT22;7459;53.590;10.062;2023-02-01T13:56:58;5.70;99.90
14737;DHT22;7459;53.590;10.062;2023-02-01T13:59:48;5.70;99.90
14737;DHT22;7459;53.590;10.062;2023-02-01T14:05:12;5.60;99.90
14737;DHT22;7459;53.590;10.062;2023-02-01T14:21:32;5.10;99.90
14737;DHT22;7459;53.590;10.062;2023-02-01T14:24:25;5.00;99.90
14737;DHT22;7459;53.590;10.062;2023-02-01T14:26:52;5.00;99.90
14737;DHT22;7459;53.590;10.062;2023-02-01T14:29:27;5.10;99.90
14737;DHT22;7459;53.590;10.062;2023-02-01T14:32:05;5.10;99.90
14737;DHT22;7459;53.590;10.062;2023-02-01T14:42:43;4.90;99.90
14737;DHT22;7459;53.590;10.062;2023-02-01T15:00:52;5.10;99.90
14737;DHT22;7459;53.590;10.062;2023-02-01T15:11:29;5.10;99.90
14737;DHT22;7459;53.590;10.062;2023-02-01T15:13:55;5.10;99.90
14737;DHT22;7459;53.590;10.062;2023-02-01T15:16:24;5.10;99.90
14737;DHT22;7459;53.590;10.062;2023-02-01T15:18:51;5.20;99.90
14737;DHT22;7459;53.590;10.062;2023-02-01T15:21:43;5.20;99.90
14737;DHT22;7459;53.590;10.062;2023-02-01T15:24:19;5.10;99.90
14737;DHT22;7459;53.590;10.062;2023-02-01T15:26:45;5.20;99.90
14737;DHT22;7459;53.590;10.062;2023-02-01T15:29:12;5.10;99.90
14737;DHT22;7459;53.590;10.062;2023-02-01T15:31:48;5.10;99.90
14737;DHT22;7459;53.590;10.062;2023-02-01T15:34:15;5.10;99.90
14737;DHT22;7459;53.590;10.062;2023-02-01T15:36:42;5.10;99.90
14737;DHT22;7459;53.590;10.062;2023-02-01T15:41:51;5.10;99.90
14737;DHT22;7459;53.590;10.062;2023-02-01T15:44:38;5.10;99.90
14737;DHT22;7459;53.590;10.062;2023-02-01T15:47:15;5.10;99.90
14737;DHT22;7459;53.590;10.062;2023-02-01T15:49:44;5.10;99.90
14737;DHT22;7459;53.590;10.062;2023-02-01T15:52:37;5.10;99.90
14737;DHT22;7459;53.590;10.062;2023-02-01T15:55:08;5.10;99.90
14737;DHT22;7459;53.590;10.062;2023-02-01T15:57:44;5.00;99.90
14737;DHT22;7459;53.590;10.062;2023-02-01T16:00:25;5.00;99.90
14737;DHT22;7459;53.590;10.062;2023-02-01T16:03:02;5.00;99.90
14737;DHT22;7459;53.590;10.062;2023-02-01T16:10:45;5.00;99.90
14737;DHT22;7459;53.590;10.062;2023-02-01T16:13:12;5.00;99.90
14737;DHT22;7459;53.590;10.062;2023-02-01T16:15:39;5.10;99.90
14737;DHT22;7459;53.590;10.062;2023-02-01T16:18:05;5.20;99.90
14737;DHT22;7459;53.590;10.062;2023-02-01T16:20:33;5.20;99.90
14737;DHT22;7459;53.590;10.062;2023-02-01T16:23:01;5.20;99.90
14737;DHT22;7459;53.590;10.062;2023-02-01T16:25:27;5.20;99.90
14737;DHT22;7459;53.590;10.062;2023-02-01T16:27:53;5.20;99.90
14737;DHT22;7459;53.590;10.062;2023-02-01T16:30:19;5.20;99.90
14737;DHT22;7459;53.590;10.062;2023-02-01T16:32:55;5.20;99.90
14737;DHT22;7459;53.590;10.062;2023-02-01T16:35:25;5.30;99.90
14737;DHT22;7459;53.590;10.062;2023-02-01T16:38:22;5.30;99.90
14737;DHT22;7459;53.590;10.062;2023-02-01T16:40:48;5.30;99.90
14737;DHT22;7459;53.590;10.062;2023-02-01T16:43:16;5.30;99.90
14737;DHT22;7459;53.590;10.062;2023-02-01T16:45:48;5.40;99.90
14737;DHT22;7459;53.590;10.062;2023-02-01T16:48:30;5.40;99.90
14737;DHT22;7459;53.590;10.062;2023-02-01T16:51:01;5.40;99.90
14737;DHT22;7459;53.590;10.062;2023-02-01T16:53:31;5.40;99.90
14737;DHT22;7459;53.590;10.062;2023-02-01T16:55:57;5.40;99.90
14737;DHT22;7459;53.590;10.062;2023-02-01T16:58:24;5.50;99.90
14737;DHT22;7459;53.590;10.062;2023-02-01T17:00:51;5.50;99.90
14737;DHT22;7459;53.590;10.062;2023-02-01T17:03:18;5.50;99.90
14737;DHT22;7459;53.590;10.062;2023-02-01T17:05:50;5.50;99.90
14737;DHT22;7459;53.590;10.062;2023-02-01T17:08:39;5.60;99.90
14737;DHT22;7459;53.590;10.062;2023-02-01T17:11:07;5.60;99.90
14737;DHT22;7459;53.590;10.062;2023-02-01T17:13:33;5.60;99.90
14737;DHT22;7459;53.590;10.062;2023-02-01T17:16:05;5.60;99.90
14737;DHT22;7459;53.590;10.062;2023-02-01T17:18:37;5.60;99.90
14737;DHT22;7459;53.590;10.062;2023-02-01T17:21:04;5.70;99.90
14737;DHT22;7459;53.590;10.062;2023-02-01T17:23:31;5.70;99.90
14737;DHT22;7459;53.590;10.062;2023-02-01T17:25:57;5.70;99.90
14737;DHT22;7459;53.590;10.062;2023-02-01T17:28:23;5.70;99.90
14737;DHT22;7459;53.590;10.062;2023-02-01T17:30:50;5.80;99.90
14737;DHT22;7459;53.590;10.062;2023-02-01T17:33:21;5.80;99.90
14737;DHT22;7459;53.590;10.062;2023-02-01T17:35:54;5.80;99.90
14737;DHT22;7459;53.590;10.062;2023-02-01T17:38:20;5.80;99.90
14737;DHT22;7459;53.590;10.062;2023-02-01T17:40:46;5.90;99.90
14737;DHT22;7459;53.590;10.062;2023-02-01T17:43:17;5.90;99.90
14737;DHT22;7459;53.590;10.062;2023-02-01T17:45:49;5.90;99.90
14737;DHT22;7459;53.590;10.062;2023-02-01T17:48:18;5.90;99.90
14737;DHT22;7459;53.590;10.062;2023-02-01T17:50:46;5.90;99.90
14737;DHT22;7459;53.590;10.062;2023-02-01T17:53:14;5.90;99.90
14737;DHT22;7459;53.590;10.062;2023-02-01T17:55:43;5.90;99.90
14737;DHT22;7459;53.590;10.062;2023-02-01T17:58:13;5.90;99.90
14737;DHT22;7459;53.590;10.062;2023-02-01T18:00:40;5.90;99.90
14737;DHT22;7459;53.590;10.062;2023-02-01T18:03:20;5.90;99.90
14737;DHT22;7459;53.590;10.062;2023-02-01T18:05:48;5.90;99.90
14737;DHT22;7459;53.590;10.062;2023-02-01T18:08:17;5.90;99.90
14737;DHT22;7459;53.590;10.062;2023-02-01T18:10:43;5.90;99.90
14737;DHT22;7459;53.590;10.062;2023-02-01T18:13:10;5.90;99.90
14737;DHT22;7459;53.590;10.062;2023-02-01T18:15:37;5.90;99.90
14737;DHT22;7459;53.590;10.062;2023-02-01T18:18:04;5.90;99.90
14737;DHT22;7459;53.590;10.062;2023-02-01T18:20:30;5.90;99.90
14737;DHT22;7459;53.590;10.062;2023-02-01T18:22:56;5.90;99.90
14737;DHT22;7459;53.590;10.062;2023-02-01T18:25:24;5.90;99.90
14737;DHT22;7459;53.590;10.062;2023-02-01T18:27:52;5.90;99.90
14737;DHT22;7459;53.590;10.062;2023-02-01T18:30:22;5.90;99.90
14737;DHT22;7459;53.590;10.062;2023-02-01T18:32:49;5.90;99.90
14737;DHT22;7459;53.590;10.062;2023-02-01T18:35:24;5.90;99.90
14737;DHT22;7459;53.590;10.062;2023-02-01T18:37:51;5.90;99.90
14737;DHT22;7459;53.590;10.062;2023-02-01T18:40:30;5.90;99.90
14737;DHT22;7459;53.590;10.062;2023-02-01T18:42:59;5.90;99.90
14737;DHT22;7459;53.590;10.062;2023-02-01T18:45:38;5.90;99.90
14737;DHT22;7459;53.590;10.062;2023-02-01T18:48:06;5.90;99.90
14737;DHT22;7459;53.590;10.062;2023-02-01T18:50:36;5.90;99.90
14737;DHT22;7459;53.590;10.062;2023-02-01T18:53:05;5.90;99.90
14737;DHT22;7459;53.590;10.062;2023-02-01T18:55:32;5.90;99.90
14737;DHT22;7459;53.590;10.062;2023-02-01T18:57:59;5.90;99.90
14737;DHT22;7459;53.590;10.062;2023-02-01T19:00:27;5.90;99.90